Time;durP1;ratioP1;P1;durP2;ratioP2;P2;SDS_P1;SDS_P2;PMS_P1;PMS_P2;Temp;Humidity;BMP_temperature;BMP_pressure;BME280_temperature;BME280_humidity;BME280_pressure;Samples;Min_cycle;Max_cycle;Signal;HPM_P1;HPM_P2
2021/06/04 02:48:19;;;;;;;8.95;8.18;;;16.20;99.90;;;;;;5051697;22;94456;-87
2021/06/04 02:51:19;;;;;;;8.10;7.50;;;16.30;99.90;;;;;;4954621;28;92058;-84
2021/06/04 02:53:57;;;;;;;7.88;7.07;;;16.50;99.90;;;;;;4953348;28;91893;-85
2021/06/04 02:56:38;;;;;;;7.90;7.20;;;16.00;99.90;;;;;;4945719;28;91601;-85
2021/06/04 02:59:11;;;;;;;8.75;7.95;;;16.20;99.90;;;;;;4956430;28;92349;-86
2021/06/04 03:01:41;;;;;;;8.35;7.60;;;16.10;99.90;;;;;;4968768;28;92107;-85
2021/06/04 03:04:09;;;;;;;8.52;7.70;;;16.20;99.90;;;;;;4969215;28;92104;-86
2021/06/04 03:06:42;;;;;;;8.38;7.68;;;16.10;99.90;;;;;;4955718;28;92254;-85
2021/06/04 03:09:12;;;;;;;9.27;8.57;;;16.00;99.90;;;;;;4960678;28;92759;-85
2021/06/04 03:11:41;;;;;;;8.55;7.93;;;16.20;99.90;;;;;;4959174;28;93321;-86
2021/06/04 03:14:14;;;;;;;9.35;8.43;;;15.90;99.90;;;;;;4958166;28;91953;-85
2021/06/04 03:16:40;;;;;;;9.07;8.18;;;15.50;99.90;;;;;;4962969;28;91244;-85
2021/06/04 03:19:09;;;;;;;8.60;7.80;;;16.30;99.90;;;;;;4964811;28;91975;-85
2021/06/04 03:21:58;;;;;;;11.95;9.18;;;15.50;99.90;;;;;;4974740;28;92906;-86
2021/06/04 03:24:34;;;;;;;9.82;8.82;;;15.50;99.90;;;;;;4958876;28;92662;-85
2021/06/04 03:27:01;;;;;;;9.48;8.63;;;16.10;99.90;;;;;;4954410;28;91374;-85
2021/06/04 03:29:27;;;;;;;8.88;8.05;;;16.00;99.90;;;;;;4953132;28;92738;-85
2021/06/04 03:32:00;;;;;;;8.60;7.95;;;15.60;99.90;;;;;;4966085;28;92811;-85
2021/06/04 03:34:26;;;;;;;10.43;9.38;;;15.40;99.90;;;;;;4962182;28;92873;-85
2021/06/04 03:36:56;;;;;;;9.70;8.90;;;16.10;99.90;;;;;;4956558;28;92155;-86
2021/06/04 03:39:35;;;;;;;8.52;7.82;;;15.80;99.90;;;;;;4960644;28;92414;-85
2021/06/04 03:42:03;;;;;;;9.68;8.77;;;15.70;99.90;;;;;;4962751;28;91889;-85
2021/06/04 03:44:32;;;;;;;8.82;7.95;;;15.50;99.90;;;;;;4958853;28;91524;-85
2021/06/04 03:46:58;;;;;;;8.15;7.40;;;15.70;99.90;;;;;;4948765;28;91769;-83
2021/06/04 03:49:25;;;;;;;9.57;8.68;;;15.80;99.90;;;;;;4938111;28;91914;-85
2021/06/04 03:51:53;;;;;;;10.02;9.10;;;15.80;99.90;;;;;;4950360;28;93260;-85
2021/06/04 03:54:23;;;;;;;10.10;9.20;;;15.80;99.90;;;;;;4949112;28;91691;-84
2021/06/04 03:56:49;;;;;;;9.88;8.90;;;15.80;99.90;;;;;;4941407;28;92558;-83
2021/06/04 03:59:15;;;;;;;12.52;10.13;;;;;;;;;;4937535;28;93325;-85
2021/06/04 04:01:51;;;;;;;10.48;9.50;;;15.90;99.90;;;;;;4939515;28;92411;-85
2021/06/04 04:04:17;;;;;;;10.10;8.93;;;16.20;99.90;;;;;;4940114;28;92225;-85
2021/06/04 04:06:43;;;;;;;9.88;8.98;;;16.40;99.90;;;;;;4950877;28;92126;-85
2021/06/04 04:09:10;;;;;;;10.00;8.88;;;15.60;99.90;;;;;;4950026;28;92637;-84
2021/06/04 04:11:36;;;;;;;9.40;8.60;;;16.40;99.90;;;;;;4948091;28;92335;-85
2021/06/04 04:14:04;;;;;;;9.73;8.80;;;16.30;99.90;;;;;;4939020;28;91981;-83
2021/06/04 04:16:30;;;;;;;9.18;8.38;;;16.50;99.90;;;;;;4948965;28;91178;-84
2021/06/04 04:18:55;;;;;;;9.73;8.93;;;16.70;99.90;;;;;;4938977;28;92748;-85
2021/06/04 04:21:22;;;;;;;9.90;9.10;;;16.20;99.90;;;;;;4939896;28;91896;-84
2021/06/04 04:23:55;;;;;;;9.85;8.90;;;16.50;99.90;;;;;;4945722;28;92870;-83
2021/06/04 04:26:28;;;;;;;9.18;8.18;;;16.40;99.90;;;;;;4947931;28;91950;-85
2021/06/04 04:28:54;;;;;;;9.32;8.52;;;16.60;99.90;;;;;;4941407;28;92018;-84
2021/06/04 04:31:27;;;;;;;9.35;8.50;;;16.20;99.90;;;;;;4950736;28;92031;-83
2021/06/04 04:33:54;;;;;;;9.15;8.35;;;16.70;99.90;;;;;;4947143;28;92107;-85
2021/06/04 04:36:23;;;;;;;9.07;8.27;;;16.70;99.90;;;;;;4947160;28;92027;-85
2021/06/04 04:38:49;;;;;;;8.93;8.17;;;17.10;99.90;;;;;;4950553;28;92303;-85
2021/06/04 04:41:15;;;;;;;9.35;8.43;;;17.00;99.90;;;;;;4947233;28;92095;-85
2021/06/04 04:43:45;;;;;;;9.48;8.43;;;17.60;99.90;;;;;;4945701;28;91707;-85
2021/06/04 04:46:14;;;;;;;9.47;8.57;;;17.20;99.90;;;;;;4936673;28;91918;-85
2021/06/04 04:48:40;;;;;;;10.73;9.65;;;17.20;99.90;;;;;;4935304;28;93633;-83
2021/06/04 04:51:07;;;;;;;9.20;8.00;;;17.50;99.90;;;;;;4952052;28;92210;-84
2021/06/04 04:53:35;;;;;;;10.07;9.07;;;17.20;99.90;;;;;;4948813;28;91630;-85
2021/06/04 04:56:00;;;;;;;9.63;8.02;;;18.00;99.90;;;;;;4950596;28;91536;-85
2021/06/04 04:58:26;;;;;;;9.13;8.32;;;17.50;99.90;;;;;;4945756;28;92004;-84
2021/06/04 05:00:54;;;;;;;10.27;9.23;;;17.70;99.90;;;;;;4950025;28;95193;-82
2021/06/04 05:03:21;;;;;;;10.05;9.05;;;17.60;99.90;;;;;;4940415;28;91500;-84
2021/06/04 05:05:47;;;;;;;8.85;7.93;;;17.50;99.90;;;;;;4945198;28;91729;-81
2021/06/04 05:08:13;;;;;;;9.73;8.73;;;18.10;99.90;;;;;;4934858;28;92314;-85
2021/06/04 05:10:39;;;;;;;11.63;8.13;;;17.80;99.90;;;;;;4939609;28;91974;-84
2021/06/04 05:13:06;;;;;;;10.23;8.40;;;17.80;99.90;;;;;;4947683;28;92754;-84
2021/06/04 05:15:34;;;;;;;8.38;7.57;;;18.40;99.90;;;;;;4944211;28;91947;-83
2021/06/04 05:18:00;;;;;;;8.90;8.10;;;18.20;99.90;;;;;;4947270;28;93186;-86
2021/06/04 05:20:26;;;;;;;9.23;8.27;;;18.10;99.90;;;;;;4925461;28;93447;-85
2021/06/04 05:22:54;;;;;;;8.23;7.53;;;18.40;99.90;;;;;;4946691;28;92670;-84
2021/06/04 05:25:25;;;;;;;8.77;7.85;;;18.70;99.90;;;;;;4951984;28;92018;-84
2021/06/04 05:27:51;;;;;;;8.70;7.95;;;19.60;99.90;;;;;;4948919;28;95116;-85
2021/06/04 05:30:24;;;;;;;9.88;8.88;;;19.20;98.60;;;;;;4943656;28;92305;-85
2021/06/04 05:32:50;;;;;;;8.68;7.78;;;19.20;97.40;;;;;;4951618;28;92254;-85
2021/06/04 05:35:17;;;;;;;7.95;7.35;;;19.30;96.20;;;;;;4949604;28;92066;-85
2021/06/04 05:37:43;;;;;;;8.65;7.75;;;19.40;96.20;;;;;;4944064;28;93126;-85
2021/06/04 05:40:13;;;;;;;8.82;7.80;;;19.40;96.30;;;;;;4950343;28;94079;-85
2021/06/04 05:42:39;;;;;;;8.43;7.75;;;19.80;95.20;;;;;;4946167;28;91614;-85
2021/06/04 05:45:08;;;;;;;7.60;7.03;;;20.10;94.60;;;;;;4947281;28;91890;-84
2021/06/04 05:47:34;;;;;;;8.27;7.55;;;20.10;94.30;;;;;;4945799;28;92746;-85
2021/06/04 05:50:00;;;;;;;9.38;8.35;;;19.90;94.30;;;;;;4947024;28;91862;-85
2021/06/04 05:52:25;;;;;;;9.75;8.95;;;20.00;94.50;;;;;;4944908;28;92083;-84
2021/06/04 05:54:51;;;;;;;9.25;8.48;;;;;;;;;;4941620;28;91294;-83
2021/06/04 05:57:18;;;;;;;8.13;7.43;;;20.20;92.10;;;;;;4946672;28;92497;-84
2021/06/04 05:59:44;;;;;;;8.60;7.90;;;20.20;91.40;;;;;;4950519;28;92095;-84
2021/06/04 06:02:11;;;;;;;8.52;7.90;;;20.60;91.80;;;;;;4931548;28;93047;-85
2021/06/04 06:04:38;;;;;;;9.30;8.50;;;20.60;90.50;;;;;;4947698;28;93059;-86
2021/06/04 06:07:04;;;;;;;7.55;6.95;;;20.50;90.70;;;;;;4949566;28;92434;-85
2021/06/04 06:09:29;;;;;;;8.43;7.75;;;20.50;90.40;;;;;;4948334;28;92655;-84
2021/06/04 06:11:55;;;;;;;8.52;7.72;;;20.60;90.00;;;;;;4945966;28;92235;-83
2021/06/04 06:14:21;;;;;;;8.50;7.70;;;20.80;90.90;;;;;;4938390;28;91878;-84
2021/06/04 06:16:47;;;;;;;9.60;8.80;;;21.00;90.30;;;;;;4948606;28;91936;-85
2021/06/04 06:19:16;;;;;;;9.45;8.60;;;20.60;89.20;;;;;;4946979;28;91860;-86
2021/06/04 06:21:46;;;;;;;10.00;9.20;;;20.80;90.00;;;;;;4943107;28;92088;-85
2021/06/04 06:24:13;;;;;;;10.00;9.20;;;20.80;90.50;;;;;;4941639;28;92088;-88
2021/06/04 06:26:39;;;;;;;8.70;8.10;;;20.90;89.50;;;;;;4943023;28;93112;-85
2021/06/04 06:29:08;;;;;;;8.93;8.18;;;21.60;88.80;;;;;;4942114;28;92561;-86
2021/06/04 06:31:36;;;;;;;9.15;8.38;;;21.20;85.40;;;;;;4939354;28;92019;-84
2021/06/04 06:34:04;;;;;;;8.05;7.63;;;21.30;85.90;;;;;;4944153;28;92119;-85
2021/06/04 06:36:32;;;;;;;8.00;7.55;;;21.40;85.10;;;;;;4930162;28;93982;-87
2021/06/04 06:39:03;;;;;;;7.88;7.28;;;21.40;85.50;;;;;;4948556;28;91986;-88
2021/06/04 06:41:29;;;;;;;8.38;7.57;;;21.30;84.20;;;;;;4944339;28;91999;-88
2021/06/04 06:43:55;;;;;;;7.80;7.10;;;21.30;84.50;;;;;;4950192;28;91259;-87
2021/06/04 06:46:24;;;;;;;11.40;7.93;;;21.50;84.10;;;;;;4945025;28;92721;-86
2021/06/04 06:48:50;;;;;;;7.60;7.00;;;21.50;84.60;;;;;;4938299;28;92354;-85
2021/06/04 06:51:17;;;;;;;7.22;6.65;;;21.60;82.50;;;;;;4943450;28;93290;-86
2021/06/04 06:53:43;;;;;;;8.00;7.50;;;22.20;80.60;;;;;;4945508;28;92267;-86
2021/06/04 06:56:13;;;;;;;7.80;7.30;;;22.30;79.60;;;;;;4944756;28;94847;-83
2021/06/04 06:58:39;;;;;;;8.57;7.80;;;22.30;79.80;;;;;;4945909;28;92152;-85
2021/06/04 07:01:07;;;;;;;7.82;7.10;;;22.60;80.80;;;;;;4944600;28;92035;-86
2021/06/04 07:03:35;;;;;;;7.22;6.53;;;22.90;79.50;;;;;;4949809;28;91818;-85
2021/06/04 07:06:05;;;;;;;7.22;6.82;;;23.20;76.10;;;;;;4944251;28;92258;-85
2021/06/04 07:08:30;;;;;;;8.77;7.80;;;23.70;77.10;;;;;;4936982;28;91960;-84
2021/06/04 07:10:57;;;;;;;9.77;8.80;;;24.00;77.80;;;;;;4947166;28;92012;-86
2021/06/04 07:13:27;;;;;;;10.55;9.55;;;24.30;78.70;;;;;;4934877;28;91948;-85
2021/06/04 07:15:55;;;;;;;11.23;10.10;;;24.60;79.00;;;;;;4941588;28;93396;-86
2021/06/04 07:18:21;;;;;;;10.48;9.68;;;24.90;78.00;;;;;;4942183;28;92900;-86
2021/06/04 07:20:47;;;;;;;11.23;10.15;;;25.10;78.20;;;;;;4948224;28;92456;-86
2021/06/04 07:23:13;;;;;;;10.82;10.02;;;25.00;78.60;;;;;;4941966;28;91851;-86
2021/06/04 07:25:41;;;;;;;12.45;9.38;;;25.20;77.50;;;;;;4943584;28;92778;-86
2021/06/04 07:28:10;;;;;;;10.65;9.63;;;25.40;77.60;;;;;;4945105;28;92135;-85
2021/06/04 07:30:40;;;;;;;10.75;9.85;;;25.70;75.60;;;;;;4946647;28;92718;-86
2021/06/04 07:33:19;;;;;;;11.60;9.68;;;25.90;74.80;;;;;;4943931;28;91956;-87
2021/06/04 07:35:46;;;;;;;11.38;10.07;;;26.10;74.10;;;;;;4948674;28;91942;-86
2021/06/04 07:38:12;;;;;;;10.98;9.82;;;26.30;73.40;;;;;;4953944;28;91889;-87
2021/06/04 07:40:39;;;;;;;10.93;10.02;;;26.50;73.00;;;;;;4930394;28;92933;-87
2021/06/04 07:43:09;;;;;;;11.18;10.18;;;26.60;71.70;;;;;;4939259;28;92034;-87
2021/06/04 07:45:37;;;;;;;;;;;26.80;72.70;;;;;;4952415;28;92747;-87
2021/06/04 07:48:04;;;;;;;7.53;6.90;;;27.00;69.70;;;;;;4944148;28;91314;-87
2021/06/04 07:50:30;;;;;;;7.22;6.75;;;26.80;66.10;;;;;;4949177;28;92066;-86
2021/06/04 07:52:56;;;;;;;7.85;7.28;;;26.90;65.40;;;;;;4945745;28;92051;-86
2021/06/04 07:55:23;;;;;;;8.10;7.40;;;27.00;64.70;;;;;;4951722;28;92183;-85
2021/06/04 07:57:48;;;;;;;9.80;9.05;;;27.40;64.70;;;;;;4944843;28;93087;-87
2021/06/04 08:00:22;;;;;;;10.10;9.30;;;27.70;65.00;;;;;;4937401;28;91831;-87
2021/06/04 08:02:48;;;;;;;9.90;9.05;;;27.80;65.50;;;;;;4934416;28;92361;-75
2021/06/04 08:05:15;;;;;;;8.85;8.05;;;28.40;60.20;;;;;;4936976;28;93331;-76
2021/06/04 08:07:40;;;;;;;9.02;7.97;;;28.40;60.50;;;;;;4932643;28;92188;-75
2021/06/04 08:10:08;;;;;;;9.15;8.40;;;28.30;59.30;;;;;;4934484;28;91957;-76
2021/06/04 08:12:35;;;;;;;9.50;8.50;;;28.30;59.70;;;;;;4936373;28;92007;-75
2021/06/04 08:15:23;;;;;;;9.30;8.50;;;28.20;62.30;;;;;;4936753;28;92269;-75
2021/06/04 08:17:50;;;;;;;9.48;8.57;;;28.50;61.20;;;;;;4925931;28;92018;-74
2021/06/04 08:20:22;;;;;;;9.80;8.93;;;28.90;60.00;;;;;;4928141;28;91909;-74
2021/06/04 08:22:50;;;;;;;9.80;9.00;;;29.20;61.70;;;;;;4929388;28;91390;-75
2021/06/04 08:25:18;;;;;;;10.60;9.68;;;28.90;61.80;;;;;;4927330;28;92359;-75
2021/06/04 08:27:43;;;;;;;10.88;9.88;;;29.00;64.20;;;;;;4928391;28;92550;-75
2021/06/04 08:30:11;;;;;;;10.38;9.45;;;28.80;65.00;;;;;;4931817;28;93064;-75
2021/06/04 08:32:37;;;;;;;9.63;8.82;;;28.90;62.60;;;;;;4933443;28;92098;-75
2021/06/04 08:35:06;;;;;;;10.02;9.02;;;29.10;60.70;;;;;;4934553;28;93206;-75
2021/06/04 08:37:32;;;;;;;11.65;10.45;;;;;;;;;;4928343;28;92440;-78
2021/06/04 08:39:57;;;;;;;7.95;7.45;;;28.70;64.50;;;;;;4929720;28;92212;-75
2021/06/04 08:43:01;;;;;;;9.40;8.50;;;28.80;61.90;;;;;;4925615;28;92073;-75
2021/06/04 08:45:34;;;;;;;9.90;9.20;;;29.00;62.60;;;;;;4931567;28;93095;-75
2021/06/04 08:48:19;;;;;;;9.18;8.48;;;29.40;62.30;;;;;;4933086;28;92280;-75
2021/06/04 08:51:02;;;;;;;8.43;7.82;;;29.30;61.40;;;;;;4925253;28;92039;-75
2021/06/04 08:53:54;;;;;;;7.63;7.03;;;29.90;61.50;;;;;;4923930;28;92192;-75
2021/06/04 08:56:25;;;;;;;7.88;7.28;;;29.80;60.20;;;;;;4927334;28;93305;-75
2021/06/04 08:59:01;;;;;;;8.43;7.50;;;30.30;59.40;;;;;;4933842;28;92097;-75
2021/06/04 09:01:48;;;;;;;9.07;6.80;;;30.60;58.70;;;;;;4928622;28;92245;-75
2021/06/04 09:04:17;;;;;;;9.93;7.03;;;31.10;57.80;;;;;;4934608;28;92733;-75
2021/06/04 09:07:14;;;;;;;6.70;6.27;;;31.60;55.40;;;;;;4933154;28;92291;-75
2021/06/04 09:10:04;;;;;;;6.18;5.78;;;32.20;52.70;;;;;;4933816;28;92992;-75
2021/06/04 09:12:48;;;;;;;5.97;5.40;;;32.70;51.60;;;;;;4933129;28;92711;-75
2021/06/04 09:15:21;;;;;;;6.43;5.93;;;33.50;49.70;;;;;;4931483;28;91263;-75
2021/06/04 09:18:01;;;;;;;7.00;6.32;;;34.10;48.00;;;;;;4932740;28;92299;-75
2021/06/04 09:20:46;;;;;;;6.65;6.15;;;34.60;46.50;;;;;;4928443;28;92884;-75
2021/06/04 09:23:14;;;;;;;6.90;6.20;;;34.90;45.90;;;;;;4921557;28;93008;-75
2021/06/04 09:25:42;;;;;;;6.80;6.18;;;35.20;45.80;;;;;;4932169;28;92201;-75
2021/06/04 09:28:11;;;;;;;8.13;6.57;;;36.40;45.20;;;;;;4933034;28;92159;-74
2021/06/04 09:30:47;;;;;;;7.53;6.77;;;37.50;43.80;;;;;;4939047;28;91668;-75
2021/06/04 09:33:42;;;;;;;6.40;6.00;;;38.40;42.70;;;;;;4923183;28;92287;-75
2021/06/04 09:36:08;;;;;;;7.07;6.28;;;39.60;40.10;;;;;;4924627;28;92038;-76
2021/06/04 09:38:42;;;;;;;8.45;7.60;;;40.50;39.10;;;;;;4937010;28;92016;-75
2021/06/04 09:41:26;;;;;;;7.63;6.68;;;41.00;37.80;;;;;;4926388;28;92240;-75
2021/06/04 09:44:17;;;;;;;7.68;7.18;;;41.50;36.90;;;;;;4924510;28;92838;-75
2021/06/04 09:46:50;;;;;;;8.63;8.02;;;41.10;36.70;;;;;;4918610;28;91918;-75
2021/06/04 09:49:40;;;;;;;9.20;8.30;;;40.50;37.10;;;;;;4933625;28;93275;-76
2021/06/04 09:52:23;;;;;;;8.85;7.97;;;40.20;37.40;;;;;;4930057;28;93224;-75
2021/06/04 09:55:16;;;;;;;8.88;8.18;;;40.00;38.10;;;;;;4932044;28;91653;-75
2021/06/04 09:57:59;;;;;;;6.60;6.10;;;39.80;37.40;;;;;;4934029;28;92075;-75
2021/06/04 10:00:31;;;;;;;9.05;8.35;;;39.70;37.90;;;;;;4928016;28;92006;-75
2021/06/04 10:03:06;;;;;;;8.68;8.10;;;39.80;37.90;;;;;;4932103;28;92428;-75
2021/06/04 10:05:33;;;;;;;6.65;6.15;;;39.60;38.50;;;;;;4933589;28;91944;-75
2021/06/04 10:08:25;;;;;;;8.82;8.13;;;39.70;38.40;;;;;;4931136;28;91403;-75
2021/06/04 10:11:14;;;;;;;6.43;5.93;;;40.90;37.80;;;;;;4936966;28;92095;-75
2021/06/04 10:13:48;;;;;;;8.57;7.78;;;42.10;35.60;;;;;;4939730;28;91978;-76
2021/06/04 10:19:23;;;;;;;8.48;7.80;;;41.00;35.70;;;;;;4928754;28;92144;-76
2021/06/04 10:22:06;;;;;;;10.15;8.30;;;40.00;37.10;;;;;;4934791;28;92707;-76
2021/06/04 10:24:34;;;;;;;8.82;8.23;;;39.20;38.00;;;;;;4931527;28;96043;-76
2021/06/04 10:27:07;;;;;;;9.00;8.38;;;39.60;38.40;;;;;;4930629;28;91762;-75
2021/06/04 10:29:33;;;;;;;8.77;8.02;;;40.10;37.90;;;;;;4929085;28;92041;-75
2021/06/04 10:32:17;;;;;;;8.18;7.57;;;40.60;37.90;;;;;;4933259;28;93584;-75
2021/06/04 10:35:02;;;;;;;8.15;7.45;;;41.40;37.70;;;;;;4929657;28;91922;-76
2021/06/04 10:37:42;;;;;;;8.45;7.85;;;41.20;36.30;;;;;;4927929;28;91959;-75
2021/06/04 10:40:18;;;;;;;7.43;7.03;;;40.10;37.30;;;;;;4937202;28;92118;-75
2021/06/04 10:42:59;;;;;;;7.90;7.13;;;38.80;37.80;;;;;;4932046;28;93121;-75
2021/06/04 10:45:53;;;;;;;8.20;7.57;;;37.70;38.80;;;;;;4930179;28;93788;-76
2021/06/04 10:48:34;;;;;;;7.30;6.60;;;36.90;41.30;;;;;;4931045;28;92371;-75
2021/06/04 10:51:19;;;;;;;6.43;6.03;;;36.60;41.50;;;;;;4929648;28;91868;-75
2021/06/04 10:53:51;;;;;;;6.57;6.18;;;37.20;42.20;;;;;;4926647;28;93431;-75
2021/06/04 10:56:34;;;;;;;4.82;3.67;;;37.20;42.30;;;;;;4932190;28;93205;-76
2021/06/04 10:59:15;;;;;;;5.70;5.28;;;37.10;41.20;;;;;;4937291;28;93292;-75
2021/06/04 11:01:49;;;;;;;5.22;4.80;;;36.90;41.80;;;;;;4934565;28;91981;-76
2021/06/04 11:04:21;;;;;;;5.28;4.97;;;36.30;41.50;;;;;;4930959;28;93479;-75
2021/06/04 11:06:49;;;;;;;5.25;4.95;;;35.80;42.10;;;;;;4928788;28;92372;-75
2021/06/04 11:09:23;;;;;;;5.97;5.32;;;35.30;42.80;;;;;;4934092;28;92878;-75
2021/06/04 11:12:09;;;;;;;5.65;5.05;;;34.80;44.00;;;;;;4940894;28;92147;-75
2021/06/04 11:14:43;;;;;;;5.65;5.18;;;34.20;45.60;;;;;;4903828;28;92120;-75
2021/06/04 11:17:22;;;;;;;5.82;5.15;;;34.00;46.00;;;;;;4941731;28;92211;-75
2021/06/04 11:19:50;;;;;;;5.50;4.80;;;33.50;46.30;;;;;;4940054;28;92143;-75
2021/06/04 11:22:42;;;;;;;4.95;4.63;;;33.00;47.70;;;;;;4935255;28;92389;-74
2021/06/04 11:25:53;;;;;;;4.93;4.53;;;32.20;48.40;;;;;;4901535;28;93373;-75
2021/06/04 11:28:30;;;;;;;4.80;4.50;;;31.40;48.70;;;;;;4922729;28;91925;-75
2021/06/04 11:30:59;;;;;;;3.38;3.08;;;30.80;50.40;;;;;;4928910;28;92094;-75
2021/06/04 11:33:28;;;;;;;4.70;4.30;;;30.40;50.40;;;;;;4931845;28;93724;-75
2021/06/04 11:36:00;;;;;;;4.90;4.50;;;29.80;50.90;;;;;;4933136;28;93248;-75
2021/06/04 11:38:49;;;;;;;4.97;4.60;;;29.70;52.10;;;;;;4927282;28;92239;-74
2021/06/04 11:41:30;;;;;;;5.07;4.65;;;29.20;52.70;;;;;;4936171;28;91974;-75
2021/06/04 11:44:24;;;;;;;5.50;5.10;;;28.70;54.10;;;;;;4927740;28;92143;-74
2021/06/04 11:47:11;;;;;;;5.88;4.57;;;28.40;55.20;;;;;;4921686;28;92730;-75
2021/06/04 11:49:55;;;;;;;4.88;4.47;;;28.20;54.80;;;;;;4933932;28;92337;-74
2021/06/04 11:52:45;;;;;;;4.72;4.32;;;28.20;55.20;;;;;;4934033;28;92099;-75
2021/06/04 11:55:35;;;;;;;5.15;4.85;;;28.10;55.90;;;;;;4933992;28;91322;-74
2021/06/04 11:58:38;;;;;;;5.13;4.63;;;28.30;55.70;;;;;;4934374;28;92044;-74
2021/06/04 12:01:23;;;;;;;5.00;4.70;;;28.20;54.60;;;;;;4934809;28;92152;-74
2021/06/04 12:04:10;;;;;;;4.82;4.50;;;28.90;54.70;;;;;;4919040;28;92992;-75
2021/06/04 12:07:00;;;;;;;6.93;4.47;;;29.10;54.90;;;;;;4934760;28;92081;-75
2021/06/04 12:09:32;;;;;;;4.72;4.40;;;29.90;53.80;;;;;;4911649;28;93463;-75
2021/06/04 12:12:24;;;;;;;4.70;3.30;;;30.60;52.20;;;;;;4927564;28;92782;-76
2021/06/04 12:14:56;;;;;;;5.10;4.70;;;31.40;50.50;;;;;;4933213;28;92077;-76
2021/06/04 12:17:38;;;;;;;7.03;3.38;;;31.90;50.20;;;;;;4931439;28;92178;-75
2021/06/04 12:20:26;;;;;;;5.00;3.50;;;32.60;49.50;;;;;;4924114;28;93035;-76
2021/06/04 12:23:26;;;;;;;4.88;4.57;;;33.80;47.10;;;;;;4932959;28;91926;-75
2021/06/04 12:25:51;;;;;;;5.35;4.95;;;35.00;46.10;;;;;;4933467;28;91947;-75
2021/06/04 12:28:22;;;;;;;5.50;5.05;;;36.20;44.80;;;;;;4934113;28;92051;-76
2021/06/04 12:30:55;;;;;;;4.85;4.55;;;37.20;43.00;;;;;;4932689;28;94455;-76
2021/06/04 12:33:36;;;;;;;5.25;4.85;;;37.60;41.90;;;;;;4930947;28;93338;-75
2021/06/04 12:36:04;;;;;;;5.60;5.20;;;38.00;40.70;;;;;;4928362;28;91278;-74
2021/06/04 12:38:34;;;;;;;5.78;5.07;;;38.10;40.40;;;;;;4932674;28;93936;-75
2021/06/04 12:41:05;;;;;;;5.20;4.80;;;38.00;40.70;;;;;;4935175;28;92547;-76
2021/06/04 12:43:34;;;;;;;5.30;4.90;;;37.90;40.00;;;;;;4935459;28;91961;-74
2021/06/04 12:46:22;;;;;;;4.88;4.47;;;37.80;40.50;;;;;;4933145;28;92183;-76
2021/06/04 12:48:58;;;;;;;5.25;4.85;;;36.70;41.00;;;;;;4928383;28;91410;-75
2021/06/04 12:51:24;;;;;;;5.47;5.07;;;35.50;42.60;;;;;;4931778;28;92203;-75
2021/06/04 12:54:02;;;;;;;5.82;5.30;;;34.40;43.20;;;;;;4934982;28;92832;-76
2021/06/04 12:56:27;;;;;;;5.15;4.85;;;33.80;44.40;;;;;;4935326;28;93013;-76
2021/06/04 12:59:07;;;;;;;5.40;5.00;;;33.90;44.90;;;;;;4936956;28;92226;-76
2021/06/04 13:01:51;;;;;;;5.28;4.95;;;33.80;45.20;;;;;;4926175;28;91998;-75
2021/06/04 13:04:23;;;;;;;4.97;4.70;;;34.20;44.60;;;;;;4935891;28;92105;-76
2021/06/04 13:06:51;;;;;;;5.25;4.85;;;34.50;44.50;;;;;;4930621;28;92060;-76
2021/06/04 13:09:23;;;;;;;6.00;4.82;;;34.90;44.20;;;;;;4949646;28;92015;-76
2021/06/04 13:11:49;;;;;;;6.53;5.55;;;35.20;43.20;;;;;;4956643;28;91695;-76
2021/06/04 13:14:26;;;;;;;4.90;4.60;;;35.60;42.30;;;;;;4954788;28;91194;-75
2021/06/04 13:16:54;;;;;;;5.20;4.70;;;35.90;41.80;;;;;;4948804;28;93851;-76
2021/06/04 13:19:32;;;;;;;5.35;4.85;;;36.00;41.30;;;;;;4953269;28;92072;-76
2021/06/04 13:22:01;;;;;;;5.30;4.90;;;35.70;41.30;;;;;;4954376;28;93518;-75
2021/06/04 13:24:36;;;;;;;5.30;4.90;;;35.60;42.00;;;;;;4951522;28;92156;-75
2021/06/04 13:27:16;;;;;;;5.03;4.72;;;35.50;42.10;;;;;;4955373;28;91729;-75
2021/06/04 13:29:44;;;;;;;5.03;4.72;;;35.10;41.90;;;;;;4955578;28;91603;-75
2021/06/04 13:32:18;;;;;;;5.05;4.65;;;35.10;42.50;;;;;;4958289;28;92963;-75
2021/06/04 13:34:49;;;;;;;5.53;5.13;;;34.80;43.20;;;;;;4956481;28;91872;-75
2021/06/04 13:37:42;;;;;;;4.90;4.60;;;34.20;43.40;;;;;;4960657;28;91632;-76
2021/06/04 13:40:12;;;;;;;5.15;4.75;;;33.80;43.80;;;;;;4956454;28;91376;-75
2021/06/04 13:42:44;;;;;;;5.72;5.22;;;33.70;44.30;;;;;;4958233;28;91642;-75
2021/06/04 13:45:14;;;;;;;5.30;4.88;;;33.50;45.10;;;;;;4949373;28;92469;-75
2021/06/04 13:48:05;;;;;;;5.28;4.97;;;33.00;45.60;;;;;;4952628;28;92474;-75
2021/06/04 13:50:31;;;;;;;5.22;4.82;;;;;;;;;;4963322;28;91888;-75
2021/06/04 13:53:49;;;;;;;5.32;4.82;;;33.30;44.80;;;;;;4950855;28;92285;-75
2021/06/04 13:56:15;;;;;;;5.70;5.20;;;33.90;44.00;;;;;;4957462;28;91922;-75
2021/06/04 13:58:43;;;;;;;5.40;5.10;;;34.50;43.40;;;;;;4967203;28;91409;-75
2021/06/04 14:01:25;;;;;;;5.60;5.13;;;34.80;42.70;;;;;;4963413;28;91325;-75
2021/06/04 14:03:57;;;;;;;5.80;5.40;;;34.90;41.80;;;;;;4953825;28;92313;-75
2021/06/04 14:06:34;;;;;;;5.30;5.00;;;34.70;42.40;;;;;;4960520;28;91147;-75
2021/06/04 14:09:32;;;;;;;5.40;5.00;;;34.80;42.20;;;;;;4961088;28;92044;-75
2021/06/04 14:12:03;;;;;;;5.07;4.78;;;35.10;41.90;;;;;;4962367;28;91422;-74
2021/06/04 14:14:42;;;;;;;5.38;4.97;;;34.90;42.40;;;;;;4957482;28;93155;-75
2021/06/04 14:17:27;;;;;;;5.80;5.40;;;34.60;42.30;;;;;;4958268;28;93854;-75
2021/06/04 14:19:54;;;;;;;5.28;4.88;;;34.10;44.00;;;;;;4952110;28;93202;-75
2021/06/04 14:22:38;;;;;;;5.65;5.25;;;33.70;43.80;;;;;;4937436;28;91939;-75
2021/06/04 14:25:25;;;;;;;5.65;5.25;;;33.40;44.30;;;;;;4930824;28;92557;-75
2021/06/04 14:28:04;;;;;;;4.93;4.53;;;33.30;44.90;;;;;;4937865;28;92719;-75
2021/06/04 14:30:40;;;;;;;5.60;5.10;;;33.30;44.50;;;;;;4936184;28;92152;-76
2021/06/04 14:33:09;;;;;;;4.88;4.47;;;33.30;44.50;;;;;;4938345;28;91358;-75
2021/06/04 14:35:40;;;;;;;5.25;4.90;;;33.50;44.30;;;;;;4931651;28;92494;-76
2021/06/04 14:38:39;;;;;;;5.00;4.55;;;33.50;44.40;;;;;;4928416;28;91996;-76
2021/06/04 14:41:23;;;;;;;5.03;4.73;;;33.30;43.80;;;;;;4940171;28;93075;-76
2021/06/04 14:44:00;;;;;;;5.03;4.63;;;33.20;43.90;;;;;;4938248;28;92839;-75
2021/06/04 14:46:32;;;;;;;4.40;4.10;;;33.20;44.10;;;;;;4932430;28;92221;-75
2021/06/04 14:49:08;;;;;;;4.95;4.50;;;33.30;43.90;;;;;;4939515;28;92408;-75
2021/06/04 14:51:34;;;;;;;5.15;4.65;;;33.10;43.80;;;;;;4939204;28;92297;-76
2021/06/04 14:54:01;;;;;;;5.78;4.60;;;32.80;43.60;;;;;;4929462;28;92437;-77
2021/06/04 14:56:27;;;;;;;8.85;5.68;;;32.30;44.20;;;;;;4934006;28;92122;-76
2021/06/04 14:58:56;;;;;;;5.05;4.75;;;32.00;45.00;;;;;;4941333;28;91798;-85
2021/06/04 15:01:22;;;;;;;4.97;4.63;;;31.90;45.10;;;;;;4929251;28;92070;-83
2021/06/04 15:03:49;;;;;;;4.78;4.47;;;31.70;45.20;;;;;;4939032;28;92094;-83
2021/06/04 15:06:15;;;;;;;4.90;4.60;;;31.50;44.60;;;;;;4933531;28;93223;-83
2021/06/04 15:08:44;;;;;;;4.88;4.57;;;31.30;44.30;;;;;;4936786;28;92905;-84
2021/06/04 15:11:12;;;;;;;5.15;4.75;;;31.10;44.50;;;;;;4923134;28;91993;-83
2021/06/04 15:13:41;;;;;;;5.15;4.72;;;31.10;44.90;;;;;;4925202;28;91993;-83
2021/06/04 15:16:09;;;;;;;6.95;4.50;;;31.00;44.80;;;;;;4932399;28;91948;-83
2021/06/04 15:18:36;;;;;;;4.97;4.60;;;30.80;44.90;;;;;;4937503;28;92568;-83
2021/06/04 15:21:03;;;;;;;4.60;4.30;;;30.70;44.80;;;;;;4935044;28;91993;-83
2021/06/04 15:23:30;;;;;;;5.07;4.65;;;30.70;45.20;;;;;;4924095;28;90814;-83
2021/06/04 15:25:57;;;;;;;4.82;4.40;;;30.50;45.00;;;;;;4922929;28;92719;-83
2021/06/04 15:28:30;;;;;;;5.07;4.63;;;30.40;45.60;;;;;;4926360;28;92035;-83
2021/06/04 15:30:57;;;;;;;5.00;4.70;;;30.10;45.40;;;;;;4939412;28;92289;-83
2021/06/04 15:33:24;;;;;;;4.60;4.20;;;30.00;47.10;;;;;;4926198;28;91954;-82
2021/06/04 15:35:49;;;;;;;5.60;4.63;;;29.90;45.80;;;;;;4924968;28;91940;-83
2021/06/04 15:38:15;;;;;;;4.82;4.40;;;29.80;46.10;;;;;;4920811;28;92000;-83
2021/06/04 15:40:41;;;;;;;5.10;4.60;;;29.70;46.20;;;;;;4929407;28;92071;-82
2021/06/04 15:43:08;;;;;;;5.20;4.72;;;29.60;46.50;;;;;;4934583;28;92137;-82
2021/06/04 15:45:35;;;;;;;5.20;4.70;;;29.50;46.70;;;;;;4920507;28;92606;-82
2021/06/04 15:48:01;;;;;;;6.10;4.68;;;29.30;46.90;;;;;;4933177;28;92414;-84
2021/06/04 15:50:32;;;;;;;5.30;4.90;;;29.10;47.40;;;;;;4941030;28;92121;-84
2021/06/04 15:52:58;;;;;;;4.80;4.50;;;29.00;47.40;;;;;;4920792;28;91893;-84
2021/06/04 15:55:24;;;;;;;5.10;4.70;;;28.90;47.70;;;;;;4945965;28;93752;-84
2021/06/04 15:57:50;;;;;;;4.82;4.53;;;28.80;47.60;;;;;;4948395;28;92046;-84
2021/06/04 16:00:19;;;;;;;4.65;4.25;;;28.90;48.30;;;;;;4933335;28;91700;-83
2021/06/04 16:02:45;;;;;;;4.95;4.55;;;28.90;48.50;;;;;;4930195;28;92107;-83
2021/06/04 16:05:14;;;;;;;5.00;4.70;;;28.90;48.70;;;;;;4938113;28;93146;-83
2021/06/04 16:07:40;;;;;;;4.90;4.60;;;28.80;48.90;;;;;;4939313;28;91971;-83